Etusivu
METAR-TAF:

METAR-TAF

Lentoasemat :

Uppsala, Ruotsi

Leveyspiiri: 59-53N, Pituuspiiri: 017-36E, korkeus merenpinnasta: 21 m

Tämänhetkinen sää

Tämä raportti tehtiin 38 minuuttia sitten, kello 09.50 UTC
Tuuli 11 kn etelästä/lounaasta
Lämpötila 7°C
Kosteus 100%
Ilmanpaine 1010 hPa
Näkyvyys: 3800 m
heikkoa tihkusadetta, utua

METAR: ESCM 170950Z AUTO 20011KT 3800 -DZ BR BKN006/// OVC013/// 07/07 Q1010

Aika: 11:28 (10:28 UTC)


TAF: puuttuu

Säähavainnot ja -ennusteet yli 4000 lentoasemalta (METAR- ja TAF-raportit).

Käytössä olevat sääasemat on merkitty karttaan keltaisilla ja punaisilla pisteillä.

Aseta hiiri pisteen päälle nähdäksesi sääaseman nimen.

Klikkaa sitten nähdäksesi säähavainnot ja -ennusteet.

Kartan vaihtaminen: klikkaa mustalla rastilla varustettuja vihreitä pisteitä, niin voit zoomata sisään; viivalla varustettua vihreää pistettä, niin voit zoomata ulos tai vihreitä nuolia, niin pääset viereisille kartoille.


METAR-TAF: